sensor_id;sensor_type;location;lat;lon;timestamp;P1;durP1;ratioP1;P2;durP2;ratioP2
2362;SDS011;64265;51.664;7.626;2023-02-01T00:00:32;4.82;;;3.55;;
2362;SDS011;64265;51.664;7.626;2023-02-01T00:02:59;2.90;;;2.60;;
2362;SDS011;64265;51.664;7.626;2023-02-01T00:05:26;4.93;;;3.20;;
2362;SDS011;64265;51.664;7.626;2023-02-01T00:07:53;5.70;;;2.90;;
2362;SDS011;64265;51.664;7.626;2023-02-01T00:10:19;4.35;;;3.17;;
2362;SDS011;64265;51.664;7.626;2023-02-01T00:12:47;3.78;;;3.40;;
2362;SDS011;64265;51.664;7.626;2023-02-01T00:15:14;5.15;;;3.35;;
2362;SDS011;64265;51.664;7.626;2023-02-01T00:17:41;3.80;;;3.50;;
2362;SDS011;64265;51.664;7.626;2023-02-01T00:20:08;4.28;;;3.00;;
2362;SDS011;64265;51.664;7.626;2023-02-01T00:22:36;6.00;;;3.38;;
2362;SDS011;64265;51.664;7.626;2023-02-01T00:25:03;4.75;;;2.92;;
2362;SDS011;64265;51.664;7.626;2023-02-01T00:27:30;4.90;;;3.13;;
2362;SDS011;64265;51.664;7.626;2023-02-01T00:29:58;3.30;;;2.47;;
2362;SDS011;64265;51.664;7.626;2023-02-01T00:32:25;4.15;;;3.00;;
2362;SDS011;64265;51.664;7.626;2023-02-01T00:34:52;4.03;;;3.45;;
2362;SDS011;64265;51.664;7.626;2023-02-01T00:37:18;4.30;;;2.72;;
2362;SDS011;64265;51.664;7.626;2023-02-01T00:39:45;3.72;;;3.10;;
2362;SDS011;64265;51.664;7.626;2023-02-01T00:42:12;3.28;;;2.97;;
2362;SDS011;64265;51.664;7.626;2023-02-01T00:44:38;3.25;;;2.88;;
2362;SDS011;64265;51.664;7.626;2023-02-01T00:47:06;3.90;;;3.05;;
2362;SDS011;64265;51.664;7.626;2023-02-01T00:49:33;6.00;;;3.10;;
2362;SDS011;64265;51.664;7.626;2023-02-01T00:52:00;4.00;;;3.00;;
2362;SDS011;64265;51.664;7.626;2023-02-01T00:54:27;5.47;;;3.17;;
2362;SDS011;64265;51.664;7.626;2023-02-01T00:56:53;5.18;;;3.25;;
2362;SDS011;64265;51.664;7.626;2023-02-01T00:59:20;4.45;;;3.00;;
2362;SDS011;64265;51.664;7.626;2023-02-01T01:01:47;4.18;;;2.92;;
2362;SDS011;64265;51.664;7.626;2023-02-01T01:04:15;5.13;;;2.88;;
2362;SDS011;64265;51.664;7.626;2023-02-01T01:06:41;4.63;;;3.58;;
2362;SDS011;64265;51.664;7.626;2023-02-01T01:09:09;3.45;;;2.72;;
2362;SDS011;64265;51.664;7.626;2023-02-01T01:11:37;4.97;;;3.30;;
2362;SDS011;64265;51.664;7.626;2023-02-01T01:14:04;4.25;;;3.33;;
2362;SDS011;64265;51.664;7.626;2023-02-01T01:16:32;3.40;;;2.72;;
2362;SDS011;64265;51.664;7.626;2023-02-01T01:18:59;2.95;;;2.42;;
2362;SDS011;64265;51.664;7.626;2023-02-01T01:21:28;5.65;;;2.42;;
2362;SDS011;64265;51.664;7.626;2023-02-01T01:23:56;3.05;;;2.75;;
2362;SDS011;64265;51.664;7.626;2023-02-01T01:26:23;4.90;;;3.25;;
2362;SDS011;64265;51.664;7.626;2023-02-01T01:28:51;6.85;;;3.05;;
2362;SDS011;64265;51.664;7.626;2023-02-01T01:31:18;3.10;;;2.13;;
2362;SDS011;64265;51.664;7.626;2023-02-01T01:33:49;3.85;;;2.90;;
2362;SDS011;64265;51.664;7.626;2023-02-01T01:36:17;4.57;;;3.10;;
2362;SDS011;64265;51.664;7.626;2023-02-01T01:38:45;3.28;;;2.55;;
2362;SDS011;64265;51.664;7.626;2023-02-01T01:41:13;4.32;;;2.63;;
2362;SDS011;64265;51.664;7.626;2023-02-01T01:43:49;3.50;;;2.40;;
2362;SDS011;64265;51.664;7.626;2023-02-01T01:46:18;3.20;;;2.38;;
2362;SDS011;64265;51.664;7.626;2023-02-01T01:48:48;3.75;;;3.00;;
2362;SDS011;64265;51.664;7.626;2023-02-01T01:51:19;4.28;;;2.90;;
2362;SDS011;64265;51.664;7.626;2023-02-01T01:53:53;3.97;;;2.83;;
2362;SDS011;64265;51.664;7.626;2023-02-01T01:56:24;4.18;;;2.88;;
2362;SDS011;64265;51.664;7.626;2023-02-01T01:58:52;3.40;;;2.70;;
2362;SDS011;64265;51.664;7.626;2023-02-01T02:01:20;3.30;;;2.83;;
2362;SDS011;64265;51.664;7.626;2023-02-01T02:03:47;4.05;;;2.60;;
2362;SDS011;64265;51.664;7.626;2023-02-01T02:06:16;2.63;;;2.42;;
2362;SDS011;64265;51.664;7.626;2023-02-01T02:08:48;2.65;;;2.45;;
2362;SDS011;64265;51.664;7.626;2023-02-01T02:11:16;4.97;;;2.95;;
2362;SDS011;64265;51.664;7.626;2023-02-01T02:13:45;5.38;;;3.60;;
2362;SDS011;64265;51.664;7.626;2023-02-01T02:16:21;4.90;;;2.97;;
2362;SDS011;64265;51.664;7.626;2023-02-01T02:19:01;3.70;;;2.60;;
2362;SDS011;64265;51.664;7.626;2023-02-01T02:21:51;2.50;;;2.30;;
2362;SDS011;64265;51.664;7.626;2023-02-01T02:24:34;2.85;;;2.28;;
2362;SDS011;64265;51.664;7.626;2023-02-01T02:27:19;3.95;;;2.70;;
2362;SDS011;64265;51.664;7.626;2023-02-01T02:35:51;3.47;;;2.63;;
2362;SDS011;64265;51.664;7.626;2023-02-01T02:38:27;3.42;;;2.47;;
2362;SDS011;64265;51.664;7.626;2023-02-01T02:41:00;3.53;;;2.42;;
2362;SDS011;64265;51.664;7.626;2023-02-01T02:43:35;2.90;;;2.45;;
2362;SDS011;64265;51.664;7.626;2023-02-01T02:46:29;3.83;;;2.70;;
2362;SDS011;64265;51.664;7.626;2023-02-01T02:49:22;2.83;;;2.63;;
2362;SDS011;64265;51.664;7.626;2023-02-01T02:51:55;4.72;;;2.65;;
2362;SDS011;64265;51.664;7.626;2023-02-01T02:54:43;4.35;;;3.05;;
2362;SDS011;64265;51.664;7.626;2023-02-01T02:57:14;2.78;;;2.40;;
2362;SDS011;64265;51.664;7.626;2023-02-01T03:00:03;3.92;;;3.03;;
2362;SDS011;64265;51.664;7.626;2023-02-01T03:02:52;3.58;;;2.55;;
2362;SDS011;64265;51.664;7.626;2023-02-01T03:05:39;3.70;;;3.22;;
2362;SDS011;64265;51.664;7.626;2023-02-01T03:08:12;3.47;;;2.28;;
2362;SDS011;64265;51.664;7.626;2023-02-01T03:10:47;2.40;;;2.20;;
2362;SDS011;64265;51.664;7.626;2023-02-01T03:13:21;3.40;;;2.25;;
2362;SDS011;64265;51.664;7.626;2023-02-01T03:15:55;3.53;;;2.70;;
2362;SDS011;64265;51.664;7.626;2023-02-01T03:18:28;2.50;;;2.30;;
2362;SDS011;64265;51.664;7.626;2023-02-01T03:21:00;3.85;;;3.13;;
2362;SDS011;64265;51.664;7.626;2023-02-01T03:23:30;3.13;;;2.88;;
2362;SDS011;64265;51.664;7.626;2023-02-01T03:25:59;2.80;;;2.60;;
2362;SDS011;64265;51.664;7.626;2023-02-01T03:28:28;2.53;;;2.25;;
2362;SDS011;64265;51.664;7.626;2023-02-01T03:30:59;3.53;;;2.40;;
2362;SDS011;64265;51.664;7.626;2023-02-01T03:33:26;2.92;;;2.25;;
2362;SDS011;64265;51.664;7.626;2023-02-01T03:35:57;4.13;;;2.28;;
2362;SDS011;64265;51.664;7.626;2023-02-01T03:38:32;3.50;;;2.95;;
2362;SDS011;64265;51.664;7.626;2023-02-01T03:41:08;4.50;;;2.72;;
2362;SDS011;64265;51.664;7.626;2023-02-01T03:43:39;3.00;;;2.35;;
2362;SDS011;64265;51.664;7.626;2023-02-01T03:46:15;3.95;;;1.90;;
2362;SDS011;64265;51.664;7.626;2023-02-01T03:48:46;3.83;;;2.38;;
2362;SDS011;64265;51.664;7.626;2023-02-01T03:51:16;3.53;;;3.00;;
2362;SDS011;64265;51.664;7.626;2023-02-01T03:53:45;4.15;;;2.38;;
2362;SDS011;64265;51.664;7.626;2023-02-01T03:56:13;2.50;;;1.80;;
2362;SDS011;64265;51.664;7.626;2023-02-01T03:58:42;2.80;;;2.53;;
2362;SDS011;64265;51.664;7.626;2023-02-01T04:01:23;3.60;;;2.08;;
2362;SDS011;64265;51.664;7.626;2023-02-01T04:03:49;2.65;;;2.13;;
2362;SDS011;64265;51.664;7.626;2023-02-01T04:06:18;3.40;;;2.65;;
2362;SDS011;64265;51.664;7.626;2023-02-01T04:08:44;3.88;;;2.50;;
2362;SDS011;64265;51.664;7.626;2023-02-01T04:11:11;2.25;;;1.92;;
2362;SDS011;64265;51.664;7.626;2023-02-01T04:13:38;2.78;;;1.98;;
2362;SDS011;64265;51.664;7.626;2023-02-01T04:16:05;3.58;;;2.72;;
2362;SDS011;64265;51.664;7.626;2023-02-01T04:18:32;3.38;;;2.25;;
2362;SDS011;64265;51.664;7.626;2023-02-01T04:20:59;2.88;;;2.35;;
2362;SDS011;64265;51.664;7.626;2023-02-01T04:23:28;2.40;;;1.67;;
2362;SDS011;64265;51.664;7.626;2023-02-01T04:25:58;2.67;;;2.10;;
2362;SDS011;64265;51.664;7.626;2023-02-01T04:28:25;2.55;;;2.35;;
2362;SDS011;64265;51.664;7.626;2023-02-01T04:30:52;3.17;;;2.00;;
2362;SDS011;64265;51.664;7.626;2023-02-01T04:33:18;4.53;;;2.80;;
2362;SDS011;64265;51.664;7.626;2023-02-01T04:35:45;3.42;;;1.90;;
2362;SDS011;64265;51.664;7.626;2023-02-01T04:38:12;3.30;;;2.00;;
2362;SDS011;64265;51.664;7.626;2023-02-01T04:40:41;2.72;;;2.22;;
2362;SDS011;64265;51.664;7.626;2023-02-01T04:43:07;2.83;;;2.50;;
2362;SDS011;64265;51.664;7.626;2023-02-01T04:45:34;2.13;;;1.90;;
2362;SDS011;64265;51.664;7.626;2023-02-01T04:48:01;3.03;;;2.72;;
2362;SDS011;64265;51.664;7.626;2023-02-01T04:50:27;3.17;;;2.28;;
2362;SDS011;64265;51.664;7.626;2023-02-01T04:52:54;4.60;;;2.00;;
2362;SDS011;64265;51.664;7.626;2023-02-01T04:55:21;2.47;;;2.25;;
2362;SDS011;64265;51.664;7.626;2023-02-01T04:57:49;2.70;;;2.20;;
2362;SDS011;64265;51.664;7.626;2023-02-01T05:00:16;4.65;;;2.65;;
2362;SDS011;64265;51.664;7.626;2023-02-01T05:02:43;2.30;;;1.85;;
2362;SDS011;64265;51.664;7.626;2023-02-01T05:05:10;3.00;;;1.98;;
2362;SDS011;64265;51.664;7.626;2023-02-01T05:07:37;3.00;;;2.15;;
2362;SDS011;64265;51.664;7.626;2023-02-01T05:10:03;2.97;;;2.58;;
2362;SDS011;64265;51.664;7.626;2023-02-01T05:12:31;5.60;;;2.55;;
2362;SDS011;64265;51.664;7.626;2023-02-01T05:15:16;1.98;;;1.77;;
2362;SDS011;64265;51.664;7.626;2023-02-01T05:17:43;3.45;;;2.53;;
2362;SDS011;64265;51.664;7.626;2023-02-01T05:20:10;3.58;;;2.50;;
2362;SDS011;64265;51.664;7.626;2023-02-01T05:22:37;2.65;;;2.33;;
2362;SDS011;64265;51.664;7.626;2023-02-01T05:25:04;2.47;;;2.13;;
2362;SDS011;64265;51.664;7.626;2023-02-01T05:27:31;3.22;;;2.25;;
2362;SDS011;64265;51.664;7.626;2023-02-01T05:29:58;2.80;;;2.10;;
2362;SDS011;64265;51.664;7.626;2023-02-01T05:32:26;2.85;;;1.98;;
2362;SDS011;64265;51.664;7.626;2023-02-01T05:34:52;2.60;;;1.85;;
2362;SDS011;64265;51.664;7.626;2023-02-01T05:37:19;2.40;;;1.75;;
2362;SDS011;64265;51.664;7.626;2023-02-01T05:39:46;2.90;;;2.10;;
2362;SDS011;64265;51.664;7.626;2023-02-01T05:42:12;4.00;;;2.42;;
2362;SDS011;64265;51.664;7.626;2023-02-01T05:44:39;3.85;;;2.30;;
2362;SDS011;64265;51.664;7.626;2023-02-01T05:47:06;3.08;;;2.50;;
2362;SDS011;64265;51.664;7.626;2023-02-01T05:49:34;3.30;;;2.17;;
2362;SDS011;64265;51.664;7.626;2023-02-01T05:52:01;2.72;;;2.30;;
2362;SDS011;64265;51.664;7.626;2023-02-01T05:54:28;2.70;;;2.10;;
2362;SDS011;64265;51.664;7.626;2023-02-01T05:56:55;3.08;;;2.20;;
2362;SDS011;64265;51.664;7.626;2023-02-01T05:59:21;3.00;;;1.92;;
2362;SDS011;64265;51.664;7.626;2023-02-01T06:01:48;2.00;;;1.80;;
2362;SDS011;64265;51.664;7.626;2023-02-01T06:04:15;2.60;;;2.05;;
2362;SDS011;64265;51.664;7.626;2023-02-01T06:06:43;3.50;;;2.28;;
2362;SDS011;64265;51.664;7.626;2023-02-01T06:09:10;2.42;;;2.10;;
2362;SDS011;64265;51.664;7.626;2023-02-01T06:11:36;2.53;;;2.20;;
2362;SDS011;64265;51.664;7.626;2023-02-01T06:14:03;2.95;;;2.05;;
2362;SDS011;64265;51.664;7.626;2023-02-01T06:16:32;2.55;;;1.90;;
2362;SDS011;64265;51.664;7.626;2023-02-01T06:18:59;2.55;;;2.00;;
2362;SDS011;64265;51.664;7.626;2023-02-01T06:21:26;2.22;;;1.80;;
2362;SDS011;64265;51.664;7.626;2023-02-01T06:23:54;2.83;;;2.22;;
2362;SDS011;64265;51.664;7.626;2023-02-01T06:26:22;3.42;;;2.05;;
2362;SDS011;64265;51.664;7.626;2023-02-01T06:28:49;2.10;;;1.60;;
2362;SDS011;64265;51.664;7.626;2023-02-01T06:31:16;3.30;;;1.90;;
2362;SDS011;64265;51.664;7.626;2023-02-01T06:33:42;2.28;;;1.77;;
2362;SDS011;64265;51.664;7.626;2023-02-01T06:36:10;2.17;;;1.83;;
2362;SDS011;64265;51.664;7.626;2023-02-01T06:38:40;2.90;;;1.70;;
2362;SDS011;64265;51.664;7.626;2023-02-01T06:41:09;3.65;;;2.45;;
2362;SDS011;64265;51.664;7.626;2023-02-01T06:43:36;2.40;;;2.17;;
2362;SDS011;64265;51.664;7.626;2023-02-01T06:46:03;2.85;;;1.75;;
2362;SDS011;64265;51.664;7.626;2023-02-01T06:48:31;2.20;;;1.98;;
2362;SDS011;64265;51.664;7.626;2023-02-01T06:50:59;4.30;;;2.20;;
2362;SDS011;64265;51.664;7.626;2023-02-01T06:53:25;2.35;;;1.75;;
2362;SDS011;64265;51.664;7.626;2023-02-01T06:55:53;2.97;;;2.10;;
2362;SDS011;64265;51.664;7.626;2023-02-01T06:58:22;2.05;;;1.85;;
2362;SDS011;64265;51.664;7.626;2023-02-01T07:00:49;5.28;;;2.55;;
2362;SDS011;64265;51.664;7.626;2023-02-01T07:03:18;3.53;;;2.05;;
2362;SDS011;64265;51.664;7.626;2023-02-01T07:05:45;1.67;;;1.50;;
2362;SDS011;64265;51.664;7.626;2023-02-01T07:08:12;2.40;;;1.75;;
2362;SDS011;64265;51.664;7.626;2023-02-01T07:10:39;2.20;;;1.80;;
2362;SDS011;64265;51.664;7.626;2023-02-01T07:13:06;3.13;;;1.92;;
2362;SDS011;64265;51.664;7.626;2023-02-01T07:15:34;2.72;;;1.85;;
2362;SDS011;64265;51.664;7.626;2023-02-01T07:18:01;1.92;;;1.60;;
2362;SDS011;64265;51.664;7.626;2023-02-01T07:20:27;4.47;;;1.90;;
2362;SDS011;64265;51.664;7.626;2023-02-01T07:22:54;2.72;;;2.03;;
2362;SDS011;64265;51.664;7.626;2023-02-01T07:25:22;3.35;;;2.00;;
2362;SDS011;64265;51.664;7.626;2023-02-01T07:27:49;3.55;;;1.92;;
2362;SDS011;64265;51.664;7.626;2023-02-01T07:30:16;2.28;;;1.67;;
2362;SDS011;64265;51.664;7.626;2023-02-01T07:32:45;2.85;;;1.70;;
2362;SDS011;64265;51.664;7.626;2023-02-01T07:35:11;2.83;;;2.17;;
2362;SDS011;64265;51.664;7.626;2023-02-01T07:37:39;3.13;;;2.05;;
2362;SDS011;64265;51.664;7.626;2023-02-01T07:40:06;2.60;;;2.10;;
2362;SDS011;64265;51.664;7.626;2023-02-01T07:42:33;2.22;;;1.80;;
2362;SDS011;64265;51.664;7.626;2023-02-01T07:45:00;2.20;;;1.80;;
2362;SDS011;64265;51.664;7.626;2023-02-01T07:47:27;2.45;;;2.08;;
2362;SDS011;64265;51.664;7.626;2023-02-01T07:49:55;2.30;;;1.85;;
2362;SDS011;64265;51.664;7.626;2023-02-01T07:52:22;2.30;;;2.10;;
2362;SDS011;64265;51.664;7.626;2023-02-01T07:54:49;1.77;;;1.38;;
2362;SDS011;64265;51.664;7.626;2023-02-01T07:57:15;2.60;;;1.42;;
2362;SDS011;64265;51.664;7.626;2023-02-01T07:59:43;1.90;;;1.25;;
2362;SDS011;64265;51.664;7.626;2023-02-01T08:02:23;1.92;;;1.38;;
2362;SDS011;64265;51.664;7.626;2023-02-01T08:04:50;2.25;;;1.88;;
2362;SDS011;64265;51.664;7.626;2023-02-01T08:07:18;2.55;;;1.80;;
2362;SDS011;64265;51.664;7.626;2023-02-01T08:09:45;1.92;;;1.60;;
2362;SDS011;64265;51.664;7.626;2023-02-01T08:12:12;2.42;;;1.40;;
2362;SDS011;64265;51.664;7.626;2023-02-01T08:14:38;2.10;;;1.55;;
2362;SDS011;64265;51.664;7.626;2023-02-01T08:17:06;2.90;;;1.67;;
2362;SDS011;64265;51.664;7.626;2023-02-01T08:19:33;2.00;;;1.60;;
2362;SDS011;64265;51.664;7.626;2023-02-01T08:21:59;2.97;;;1.63;;
2362;SDS011;64265;51.664;7.626;2023-02-01T08:24:32;1.75;;;1.52;;
2362;SDS011;64265;51.664;7.626;2023-02-01T08:27:02;2.13;;;1.83;;
2362;SDS011;64265;51.664;7.626;2023-02-01T08:29:29;1.60;;;1.30;;
2362;SDS011;64265;51.664;7.626;2023-02-01T08:31:56;2.15;;;1.77;;
2362;SDS011;64265;51.664;7.626;2023-02-01T08:34:23;1.67;;;1.55;;
2362;SDS011;64265;51.664;7.626;2023-02-01T08:36:49;4.32;;;1.70;;
2362;SDS011;64265;51.664;7.626;2023-02-01T08:39:23;1.85;;;1.60;;
2362;SDS011;64265;51.664;7.626;2023-02-01T08:41:51;2.90;;;1.55;;
2362;SDS011;64265;51.664;7.626;2023-02-01T08:44:32;2.35;;;1.65;;
2362;SDS011;64265;51.664;7.626;2023-02-01T08:46:59;2.42;;;1.77;;
2362;SDS011;64265;51.664;7.626;2023-02-01T08:49:25;2.17;;;1.95;;
2362;SDS011;64265;51.664;7.626;2023-02-01T08:51:52;3.55;;;1.90;;
2362;SDS011;64265;51.664;7.626;2023-02-01T08:54:19;6.13;;;1.58;;
2362;SDS011;64265;51.664;7.626;2023-02-01T08:56:46;8.45;;;1.85;;
2362;SDS011;64265;51.664;7.626;2023-02-01T08:59:14;3.00;;;1.42;;
2362;SDS011;64265;51.664;7.626;2023-02-01T09:01:41;2.65;;;1.58;;
2362;SDS011;64265;51.664;7.626;2023-02-01T09:04:08;2.38;;;1.52;;
2362;SDS011;64265;51.664;7.626;2023-02-01T09:06:34;3.30;;;2.10;;
2362;SDS011;64265;51.664;7.626;2023-02-01T09:09:01;3.22;;;1.95;;
2362;SDS011;64265;51.664;7.626;2023-02-01T09:11:28;3.88;;;1.80;;
2362;SDS011;64265;51.664;7.626;2023-02-01T09:13:55;3.35;;;2.10;;
2362;SDS011;64265;51.664;7.626;2023-02-01T09:16:23;2.42;;;1.80;;
2362;SDS011;64265;51.664;7.626;2023-02-01T09:18:50;3.35;;;2.40;;
2362;SDS011;64265;51.664;7.626;2023-02-01T09:21:17;4.60;;;2.10;;
2362;SDS011;64265;51.664;7.626;2023-02-01T09:23:43;2.45;;;1.80;;
2362;SDS011;64265;51.664;7.626;2023-02-01T09:26:13;2.85;;;2.00;;
2362;SDS011;64265;51.664;7.626;2023-02-01T09:28:40;2.13;;;1.55;;
2362;SDS011;64265;51.664;7.626;2023-02-01T09:31:07;2.95;;;1.70;;
2362;SDS011;64265;51.664;7.626;2023-02-01T09:33:35;3.17;;;1.80;;
2362;SDS011;64265;51.664;7.626;2023-02-01T09:36:03;1.63;;;1.33;;
2362;SDS011;64265;51.664;7.626;2023-02-01T09:38:30;2.70;;;1.65;;
2362;SDS011;64265;51.664;7.626;2023-02-01T09:40:57;6.15;;;2.33;;
2362;SDS011;64265;51.664;7.626;2023-02-01T09:43:29;4.35;;;1.42;;
2362;SDS011;64265;51.664;7.626;2023-02-01T09:46:12;2.45;;;1.30;;
2362;SDS011;64265;51.664;7.626;2023-02-01T09:48:48;3.40;;;1.80;;
2362;SDS011;64265;51.664;7.626;2023-02-01T09:51:25;2.78;;;2.15;;
2362;SDS011;64265;51.664;7.626;2023-02-01T09:53:58;2.22;;;1.70;;
2362;SDS011;64265;51.664;7.626;2023-02-01T09:56:33;2.78;;;2.00;;
2362;SDS011;64265;51.664;7.626;2023-02-01T09:59:04;2.03;;;1.60;;
2362;SDS011;64265;51.664;7.626;2023-02-01T10:01:41;2.65;;;1.40;;
2362;SDS011;64265;51.664;7.626;2023-02-01T10:04:10;2.47;;;1.70;;
2362;SDS011;64265;51.664;7.626;2023-02-01T10:06:42;2.22;;;1.60;;
2362;SDS011;64265;51.664;7.626;2023-02-01T10:09:25;1.95;;;1.50;;
2362;SDS011;64265;51.664;7.626;2023-02-01T10:12:28;2.58;;;1.80;;
2362;SDS011;64265;51.664;7.626;2023-02-01T10:15:14;2.88;;;1.70;;
2362;SDS011;64265;51.664;7.626;2023-02-01T10:17:52;16.92;;;2.13;;
2362;SDS011;64265;51.664;7.626;2023-02-01T10:20:55;10.45;;;2.00;;
2362;SDS011;64265;51.664;7.626;2023-02-01T10:23:38;4.80;;;2.35;;
2362;SDS011;64265;51.664;7.626;2023-02-01T10:26:31;3.88;;;1.40;;
2362;SDS011;64265;51.664;7.626;2023-02-01T10:29:02;5.47;;;1.65;;
2362;SDS011;64265;51.664;7.626;2023-02-01T10:31:35;6.13;;;3.03;;
2362;SDS011;64265;51.664;7.626;2023-02-01T10:34:07;6.53;;;2.10;;
2362;SDS011;64265;51.664;7.626;2023-02-01T10:36:48;2.38;;;1.70;;
2362;SDS011;64265;51.664;7.626;2023-02-01T10:39:19;3.13;;;1.77;;
2362;SDS011;64265;51.664;7.626;2023-02-01T10:41:47;2.83;;;1.40;;
2362;SDS011;64265;51.664;7.626;2023-02-01T10:44:14;6.60;;;1.98;;
2362;SDS011;64265;51.664;7.626;2023-02-01T10:46:42;4.40;;;2.17;;
2362;SDS011;64265;51.664;7.626;2023-02-01T10:49:11;5.60;;;2.03;;
2362;SDS011;64265;51.664;7.626;2023-02-01T10:51:44;2.95;;;1.77;;
2362;SDS011;64265;51.664;7.626;2023-02-01T10:54:15;6.93;;;1.65;;
2362;SDS011;64265;51.664;7.626;2023-02-01T10:56:45;2.50;;;1.50;;
2362;SDS011;64265;51.664;7.626;2023-02-01T10:59:16;3.08;;;1.67;;
2362;SDS011;64265;51.664;7.626;2023-02-01T11:01:47;3.70;;;1.52;;
2362;SDS011;64265;51.664;7.626;2023-02-01T11:04:15;5.93;;;1.77;;
2362;SDS011;64265;51.664;7.626;2023-02-01T11:06:45;4.32;;;1.70;;
2362;SDS011;64265;51.664;7.626;2023-02-01T11:09:17;3.63;;;1.65;;
2362;SDS011;64265;51.664;7.626;2023-02-01T11:11:58;1.70;;;1.35;;
2362;SDS011;64265;51.664;7.626;2023-02-01T11:14:35;6.82;;;1.60;;
2362;SDS011;64265;51.664;7.626;2023-02-01T11:17:16;4.03;;;2.03;;
2362;SDS011;64265;51.664;7.626;2023-02-01T11:19:56;2.78;;;1.48;;
2362;SDS011;64265;51.664;7.626;2023-02-01T11:22:26;2.95;;;1.85;;
2362;SDS011;64265;51.664;7.626;2023-02-01T11:24:54;4.47;;;1.40;;
2362;SDS011;64265;51.664;7.626;2023-02-01T11:27:22;3.50;;;2.28;;
2362;SDS011;64265;51.664;7.626;2023-02-01T11:29:51;7.70;;;2.92;;
2362;SDS011;64265;51.664;7.626;2023-02-01T11:32:21;7.30;;;2.53;;
2362;SDS011;64265;51.664;7.626;2023-02-01T11:34:51;6.85;;;2.85;;
2362;SDS011;64265;51.664;7.626;2023-02-01T11:37:21;12.57;;;5.00;;
2362;SDS011;64265;51.664;7.626;2023-02-01T11:39:55;11.82;;;3.97;;
2362;SDS011;64265;51.664;7.626;2023-02-01T11:42:23;6.93;;;3.35;;
2362;SDS011;64265;51.664;7.626;2023-02-01T11:44:51;10.00;;;3.00;;
2362;SDS011;64265;51.664;7.626;2023-02-01T11:47:43;12.93;;;3.60;;
2362;SDS011;64265;51.664;7.626;2023-02-01T11:50:12;8.60;;;2.40;;
2362;SDS011;64265;51.664;7.626;2023-02-01T11:52:45;5.60;;;2.30;;
2362;SDS011;64265;51.664;7.626;2023-02-01T11:55:32;5.25;;;2.22;;
2362;SDS011;64265;51.664;7.626;2023-02-01T11:58:20;7.70;;;2.70;;
2362;SDS011;64265;51.664;7.626;2023-02-01T12:01:02;6.63;;;2.50;;
2362;SDS011;64265;51.664;7.626;2023-02-01T12:03:45;6.93;;;2.50;;
2362;SDS011;64265;51.664;7.626;2023-02-01T12:06:32;5.50;;;2.65;;
2362;SDS011;64265;51.664;7.626;2023-02-01T12:09:17;5.35;;;2.67;;
2362;SDS011;64265;51.664;7.626;2023-02-01T12:11:58;3.47;;;1.63;;
2362;SDS011;64265;51.664;7.626;2023-02-01T12:14:38;6.82;;;3.05;;
2362;SDS011;64265;51.664;7.626;2023-02-01T12:17:18;4.28;;;2.00;;
2362;SDS011;64265;51.664;7.626;2023-02-01T12:20:08;4.65;;;2.33;;
2362;SDS011;64265;51.664;7.626;2023-02-01T12:22:51;4.03;;;1.90;;
2362;SDS011;64265;51.664;7.626;2023-02-01T12:25:35;4.70;;;2.42;;
2362;SDS011;64265;51.664;7.626;2023-02-01T12:31:15;5.80;;;1.90;;
2362;SDS011;64265;51.664;7.626;2023-02-01T12:34:23;3.28;;;1.95;;
2362;SDS011;64265;51.664;7.626;2023-02-01T12:37:01;4.50;;;1.90;;
2362;SDS011;64265;51.664;7.626;2023-02-01T12:39:37;2.95;;;1.75;;
2362;SDS011;64265;51.664;7.626;2023-02-01T12:42:08;2.60;;;1.63;;
2362;SDS011;64265;51.664;7.626;2023-02-01T12:44:43;9.05;;;2.00;;
2362;SDS011;64265;51.664;7.626;2023-02-01T12:47:18;5.35;;;2.00;;
2362;SDS011;64265;51.664;7.626;2023-02-01T12:49:50;3.72;;;1.60;;
2362;SDS011;64265;51.664;7.626;2023-02-01T12:52:23;5.13;;;1.77;;
2362;SDS011;64265;51.664;7.626;2023-02-01T12:55:04;3.45;;;1.52;;
2362;SDS011;64265;51.664;7.626;2023-02-01T12:57:36;4.88;;;2.25;;
2362;SDS011;64265;51.664;7.626;2023-02-01T13:00:13;4.78;;;1.75;;
2362;SDS011;64265;51.664;7.626;2023-02-01T13:02:50;3.97;;;1.77;;
2362;SDS011;64265;51.664;7.626;2023-02-01T13:05:22;6.80;;;2.05;;
2362;SDS011;64265;51.664;7.626;2023-02-01T13:07:56;3.58;;;1.90;;
2362;SDS011;64265;51.664;7.626;2023-02-01T13:10:27;3.42;;;1.80;;
2362;SDS011;64265;51.664;7.626;2023-02-01T13:13:02;2.53;;;1.30;;
2362;SDS011;64265;51.664;7.626;2023-02-01T13:15:39;2.20;;;1.20;;
2362;SDS011;64265;51.664;7.626;2023-02-01T13:18:10;3.92;;;1.60;;
2362;SDS011;64265;51.664;7.626;2023-02-01T13:20:44;3.55;;;1.65;;
2362;SDS011;64265;51.664;7.626;2023-02-01T13:23:15;2.03;;;1.30;;
2362;SDS011;64265;51.664;7.626;2023-02-01T13:25:49;2.97;;;1.80;;
2362;SDS011;64265;51.664;7.626;2023-02-01T13:28:17;2.58;;;1.65;;
2362;SDS011;64265;51.664;7.626;2023-02-01T13:31:06;3.38;;;2.00;;
2362;SDS011;64265;51.664;7.626;2023-02-01T13:34:04;4.40;;;1.55;;
2362;SDS011;64265;51.664;7.626;2023-02-01T13:37:12;4.70;;;1.73;;
2362;SDS011;64265;51.664;7.626;2023-02-01T13:39:51;3.70;;;2.78;;
2362;SDS011;64265;51.664;7.626;2023-02-01T13:42:31;3.30;;;1.77;;
2362;SDS011;64265;51.664;7.626;2023-02-01T13:45:04;9.00;;;1.88;;
2362;SDS011;64265;51.664;7.626;2023-02-01T13:47:42;9.50;;;2.08;;
2362;SDS011;64265;51.664;7.626;2023-02-01T13:50:12;2.20;;;1.65;;
2362;SDS011;64265;51.664;7.626;2023-02-01T13:52:50;2.78;;;1.83;;
2362;SDS011;64265;51.664;7.626;2023-02-01T13:55:24;2.40;;;2.00;;
2362;SDS011;64265;51.664;7.626;2023-02-01T13:58:01;7.63;;;1.60;;
2362;SDS011;64265;51.664;7.626;2023-02-01T14:00:37;5.45;;;1.75;;
2362;SDS011;64265;51.664;7.626;2023-02-01T14:03:11;1.63;;;1.25;;
2362;SDS011;64265;51.664;7.626;2023-02-01T14:06:02;2.58;;;1.55;;
2362;SDS011;64265;51.664;7.626;2023-02-01T14:08:42;3.50;;;1.63;;
2362;SDS011;64265;51.664;7.626;2023-02-01T14:11:31;4.35;;;1.48;;
2362;SDS011;64265;51.664;7.626;2023-02-01T14:14:36;2.15;;;1.40;;
2362;SDS011;64265;51.664;7.626;2023-02-01T14:23:19;2.78;;;1.25;;
2362;SDS011;64265;51.664;7.626;2023-02-01T14:25:59;3.10;;;1.42;;
2362;SDS011;64265;51.664;7.626;2023-02-01T14:28:41;3.85;;;1.27;;
2362;SDS011;64265;51.664;7.626;2023-02-01T14:34:10;1.48;;;1.30;;
2362;SDS011;64265;51.664;7.626;2023-02-01T14:36:41;1.88;;;1.38;;
2362;SDS011;64265;51.664;7.626;2023-02-01T14:39:27;1.92;;;1.30;;
2362;SDS011;64265;51.664;7.626;2023-02-01T14:41:58;2.33;;;1.33;;
2362;SDS011;64265;51.664;7.626;2023-02-01T14:44:33;2.05;;;1.33;;
2362;SDS011;64265;51.664;7.626;2023-02-01T14:47:09;1.42;;;1.10;;
2362;SDS011;64265;51.664;7.626;2023-02-01T14:53:04;1.60;;;1.20;;
2362;SDS011;64265;51.664;7.626;2023-02-01T14:55:55;2.22;;;1.50;;
2362;SDS011;64265;51.664;7.626;2023-02-01T14:58:31;4.78;;;1.90;;
2362;SDS011;64265;51.664;7.626;2023-02-01T15:01:03;2.13;;;1.73;;
2362;SDS011;64265;51.664;7.626;2023-02-01T15:03:36;2.45;;;1.50;;
2362;SDS011;64265;51.664;7.626;2023-02-01T15:06:19;1.90;;;1.17;;
2362;SDS011;64265;51.664;7.626;2023-02-01T15:09:07;4.07;;;1.83;;
2362;SDS011;64265;51.664;7.626;2023-02-01T15:14:28;2.65;;;1.27;;
2362;SDS011;64265;51.664;7.626;2023-02-01T15:16:56;1.88;;;1.30;;
2362;SDS011;64265;51.664;7.626;2023-02-01T15:19:24;1.40;;;1.05;;
2362;SDS011;64265;51.664;7.626;2023-02-01T15:21:53;1.80;;;1.10;;
2362;SDS011;64265;51.664;7.626;2023-02-01T15:24:21;2.60;;;1.23;;
2362;SDS011;64265;51.664;7.626;2023-02-01T15:26:50;2.38;;;1.20;;
2362;SDS011;64265;51.664;7.626;2023-02-01T15:29:19;2.38;;;1.35;;
2362;SDS011;64265;51.664;7.626;2023-02-01T15:31:51;2.35;;;1.23;;
2362;SDS011;64265;51.664;7.626;2023-02-01T15:34:18;2.70;;;1.25;;
2362;SDS011;64265;51.664;7.626;2023-02-01T15:36:46;2.25;;;1.83;;
2362;SDS011;64265;51.664;7.626;2023-02-01T15:39:15;3.00;;;1.40;;
2362;SDS011;64265;51.664;7.626;2023-02-01T15:41:49;2.33;;;1.00;;
2362;SDS011;64265;51.664;7.626;2023-02-01T15:44:18;2.58;;;1.30;;
2362;SDS011;64265;51.664;7.626;2023-02-01T15:46:50;3.13;;;1.10;;
2362;SDS011;64265;51.664;7.626;2023-02-01T15:49:19;2.58;;;1.25;;
2362;SDS011;64265;51.664;7.626;2023-02-01T15:51:49;1.92;;;1.40;;